1MS5 weather

General Dan C Mills Emergency Heliport
Byhalia, Mississippi, United States

Public forecast

Using degrees Fahrenheit for public forecast. Weather courtesy of forecast.io.

Closest aviation weather report (METAR) to General Dan C Mills Emergency Heliport

Closest report is Olive Branch Airport, 6.8 nm (12.6 km) NW. Retrieved 2019/10/23 21:50 UTC (51 minutes ago):

KOLV 232150Z 18007KT 10SM SKC 21/02 A3012

Closest aviation forecast (TAF) to General Dan C Mills Emergency Heliport

Closest forecast is Memphis International Airport, 16.3 nm (30.2 km) NW. Retrieved 2019/10/23 18:22 UTC (4 hours ago):

TAF KMEM 231720Z 2318/2424 19009KT P6SM SKC FM240000 16005KT P6SM SKC